Time;durP1;ratioP1;P1;durP2;ratioP2;P2;SDS_P1;SDS_P2;PMS_P1;PMS_P2;Temp;Humidity;BMP_temperature;BMP_pressure;BME280_temperature;BME280_humidity;BME280_pressure;Samples;Min_cycle;Max_cycle;Signal;HPM_P1;HPM_P2
2023/12/16 00:01:11;;;;;;;8.27;2.45;;;;;;;-8.75;70.37;100102.25;4963029;28;20050;-71
2023/12/16 00:03:40;;;;;;;20.33;5.18;;;;;;;-9.61;70.26;99969.09;4977820;28;20092;-71
2023/12/16 00:06:08;;;;;;;21.75;5.53;;;;;;;-8.99;70.75;100065.25;4997963;28;20046;-71
2023/12/16 00:08:35;;;;;;;11.50;4.50;;;;;;;-8.81;70.63;100093.47;4976318;28;20128;-72
2023/12/16 00:11:02;;;;;;;21.20;5.85;;;;;;;-8.99;70.80;100077.84;4960955;28;20042;-73
2023/12/16 00:13:31;;;;;;;11.70;3.28;;;;;;;-8.79;70.57;100102.03;4960719;28;20042;-70
2023/12/16 00:15:58;;;;;;;20.55;5.45;;;;;;;-9.12;70.27;100053.38;4976391;28;20389;-70
2023/12/16 00:18:28;;;;;;;11.52;4.25;;;;;;;-8.86;70.33;100099.81;4963457;28;20053;-71
2023/12/16 00:20:57;;;;;;;19.10;5.88;;;;;;;-9.01;70.31;100083.56;4976217;28;20042;-69
2023/12/16 00:23:26;;;;;;;19.83;5.47;;;;;;;-9.03;70.63;100085.09;4971455;28;20492;-70
2023/12/16 00:26:02;;;;;;;13.73;4.35;;;;;;;-8.93;70.53;100093.44;4979105;28;20053;-70
2023/12/16 00:28:30;;;;;;;17.77;4.78;;;;;;;-9.39;70.89;100012.78;4962113;28;20283;-69
2023/12/16 00:30:57;;;;;;;19.73;4.60;;;;;;;-9.10;70.74;100073.69;4971432;28;20539;-70
2023/12/16 00:33:24;;;;;;;17.88;4.43;;;;;;;-9.07;70.53;100073.91;4950932;28;20057;-70
2023/12/16 00:35:51;;;;;;;22.40;5.40;;;;;;;-9.03;70.47;100080.03;4979543;28;20150;-70
2023/12/16 00:38:20;;;;;;;15.48;5.43;;;;;;;-8.95;70.52;100091.59;4977742;28;20042;-69
2023/12/16 00:40:46;;;;;;;17.27;4.35;;;;;;;-9.05;70.75;100076.53;4964810;28;20440;-69
2023/12/16 00:43:21;;;;;;;22.48;4.95;;;;;;;-8.78;70.96;100115.50;4995937;28;20042;-70
2023/12/16 00:45:48;;;;;;;16.50;4.53;;;;;;;-8.74;71.42;100112.44;4952605;28;20072;-70
2023/12/16 00:48:20;;;;;;;17.27;4.95;;;;;;;-8.66;71.14;100108.84;4967673;28;20078;-70
2023/12/16 00:51:00;;;;;;;15.45;4.72;;;;;;;-8.85;71.65;100062.88;4980960;28;20487;-70
2023/12/16 00:53:32;;;;;;;20.40;3.70;;;;;;;-8.62;71.29;100102.38;5014085;28;20048;-69
2023/12/16 00:56:09;;;;;;;21.23;5.82;;;;;;;-8.48;71.34;100110.94;5010499;28;20037;-70
2023/12/16 00:58:38;;;;;;;15.38;4.68;;;;;;;-9.10;71.29;100003.06;4994456;28;20045;-71
2023/12/16 01:01:14;;;;;;;5.75;2.95;;;;;;;-8.55;71.07;100094.50;4969412;28;20049;-70
2023/12/16 01:03:45;;;;;;;21.92;4.60;;;;;;;-9.09;71.09;100019.94;4966004;28;20148;-69
2023/12/16 01:06:11;;;;;;;9.38;3.28;;;;;;;-8.34;71.14;100132.09;4997013;28;20046;-72
2023/12/16 01:08:42;;;;;;;8.60;3.13;;;;;;;-8.93;71.58;100014.34;5013161;28;20068;-69
2023/12/16 01:11:10;;;;;;;18.60;4.25;;;;;;;-8.60;71.02;100072.22;4995106;28;20530;-68
2023/12/16 01:13:39;;;;;;;12.38;3.80;;;;;;;-8.24;71.30;100134.50;4977729;28;20046;-69
2023/12/16 01:16:05;;;;;;;17.40;4.93;;;;;;;-8.39;71.07;100106.53;4994174;28;20139;-68
2023/12/16 01:18:31;;;;;;;9.95;4.00;;;;;;;-8.46;71.01;100104.31;4980378;28;20048;-68
2023/12/16 01:21:19;;;;;;;17.23;5.03;;;;;;;-8.52;71.26;100088.75;4974854;28;20177;-70
2023/12/16 01:23:46;;;;;;;10.07;3.45;;;;;;;-8.24;71.19;100129.44;4962023;28;20045;-73
2023/12/16 01:26:12;;;;;;;8.13;3.40;;;;;;;-8.03;71.11;100162.06;5014401;28;20050;-68
2023/12/16 01:28:39;;;;;;;13.25;3.67;;;;;;;-8.20;70.42;100135.63;4994775;28;20108;-69
2023/12/16 01:31:05;;;;;;;14.05;4.90;;;;;;;-8.02;71.23;100161.28;4999716;28;20484;-68
2023/12/16 01:33:32;;;;;;;13.75;4.38;;;;;;;-8.17;70.85;100131.66;4979712;28;20078;-67
2023/12/16 01:36:06;;;;;;;7.20;2.83;;;;;;;-7.87;71.15;100171.63;4964491;28;20468;-68
2023/12/16 01:38:38;;;;;;;14.88;4.53;;;;;;;-8.46;71.18;100063.94;4963744;28;20041;-69
2023/12/16 01:41:05;;;;;;;12.85;3.25;;;;;;;-7.84;71.25;100176.88;5001530;28;20045;-68
2023/12/16 01:43:31;;;;;;;7.70;2.97;;;;;;;-8.38;70.75;100084.69;4977128;28;20040;-68
2023/12/16 01:46:05;;;;;;;6.53;3.10;;;;;;;-8.18;71.37;100127.38;4993964;28;20499;-69
2023/12/16 01:48:34;;;;;;;14.57;3.35;;;;;;;-8.48;71.10;100062.97;5011542;28;20092;-69
2023/12/16 01:51:07;;;;;;;6.80;2.67;;;;;;;-7.85;70.95;100164.16;4985459;28;20054;-68
2023/12/16 01:53:40;;;;;;;9.23;4.00;;;;;;;-8.19;70.79;100107.06;4994023;28;20049;-72
2023/12/16 01:56:15;;;;;;;9.70;2.58;;;;;;;-7.92;71.17;100158.66;5014764;28;20049;-72
2023/12/16 01:58:44;;;;;;;7.90;3.33;;;;;;;-8.37;70.50;100076.34;4977783;28;20042;-73
2023/12/16 02:01:13;;;;;;;9.05;2.45;;;;;;;-8.47;70.51;100087.41;4981180;28;20072;-69
2023/12/16 02:03:41;;;;;;;11.00;2.60;;;;;;;-7.97;70.85;100154.06;4978502;28;20141;-70
2023/12/16 02:06:08;;;;;;;9.75;2.17;;;;;;;-9.00;70.14;99985.28;4979547;28;20099;-70
2023/12/16 02:08:40;;;;;;;8.48;2.55;;;;;;;-8.33;70.17;100091.81;4993996;28;20093;-70
2023/12/16 02:11:15;;;;;;;9.68;2.42;;;;;;;-7.82;70.63;100164.34;4979731;28;20081;-70
2023/12/16 02:14:07;;;;;;;6.55;2.38;;;;;;;-7.53;70.51;100211.03;4978324;28;20038;-70
2023/12/16 02:16:33;;;;;;;7.43;2.83;;;;;;;-8.15;70.12;100070.28;4972538;28;20110;-68
2023/12/16 02:19:00;;;;;;;8.80;2.90;;;;;;;-7.27;70.69;100188.44;4996206;28;20096;-70
2023/12/16 02:21:40;;;;;;;10.35;3.35;;;;;;;-7.68;69.86;100092.91;4992569;28;20046;-69
2023/12/16 02:24:11;;;;;;;8.30;2.13;;;;;;;-6.95;70.14;100186.31;4980222;28;20080;-69
2023/12/16 02:26:42;;;;;;;8.65;3.13;;;;;;;-7.49;69.59;100105.13;4995594;28;20049;-69
2023/12/16 02:29:14;;;;;;;10.90;3.65;;;;;;;-7.14;70.00;100151.31;4992110;28;20052;-71
2023/12/16 02:31:49;;;;;;;10.48;2.83;;;;;;;-7.57;69.63;100076.81;4991855;28;20077;-69
2023/12/16 02:34:15;;;;;;;8.05;2.80;;;;;;;-7.31;70.06;100094.53;4980359;28;20056;-68
2023/12/16 02:36:42;;;;;;;7.53;2.08;;;;;;;-6.69;70.14;100200.72;4994775;28;20046;-70
2023/12/16 02:39:11;;;;;;;10.68;3.63;;;;;;;-6.53;69.56;100214.41;5012592;28;20622;-70
2023/12/16 02:41:38;;;;;;;9.07;2.70;;;;;;;-7.45;68.78;100060.72;4981792;28;20041;-69
2023/12/16 02:44:04;;;;;;;9.43;2.55;;;;;;;-7.47;68.95;100067.34;4991154;28;20054;-69
2023/12/16 02:46:33;;;;;;;10.15;3.05;;;;;;;-6.73;69.11;100167.50;4982255;28;20128;-71
2023/12/16 02:49:02;;;;;;;12.52;2.83;;;;;;;-6.45;69.20;100210.72;4997425;28;20041;-71
2023/12/16 02:51:30;;;;;;;15.82;4.72;;;;;;;-6.64;69.58;100146.97;4978383;28;20049;-72
2023/12/16 02:53:56;;;;;;;10.63;3.42;;;;;;;-6.27;69.06;100198.38;5014770;28;20080;-72
2023/12/16 02:56:23;;;;;;;12.63;4.20;;;;;;;-7.14;68.59;100060.22;5003696;28;20099;-71
2023/12/16 02:58:49;;;;;;;9.80;3.63;;;;;;;-6.42;69.07;100183.06;5014171;28;20042;-69
2023/12/16 03:01:18;;;;;;;7.63;2.28;;;;;;;-6.47;68.86;100181.88;4981338;28;20041;-71
2023/12/16 03:03:52;;;;;;;14.50;3.92;;;;;;;-6.40;69.19;100190.78;5015131;28;20046;-72
2023/12/16 03:06:18;;;;;;;7.20;2.97;;;;;;;-6.21;69.52;100208.94;5015112;28;20115;-71
2023/12/16 03:08:47;;;;;;;7.50;2.67;;;;;;;-6.70;68.85;100105.28;4981194;28;20292;-71
2023/12/16 03:11:13;;;;;;;8.38;3.08;;;;;;;-6.73;68.80;100117.75;4992461;28;20046;-70
2023/12/16 03:13:43;;;;;;;12.32;3.67;;;;;;;-6.07;68.96;100219.94;5014702;28;20041;-71
2023/12/16 03:16:13;;;;;;;9.55;3.70;;;;;;;-6.08;68.48;100218.22;4976592;28;20054;-70
2023/12/16 03:18:42;;;;;;;9.07;3.28;;;;;;;-6.57;69.16;100116.22;4981397;28;20037;-71
2023/12/16 03:21:08;;;;;;;10.02;3.10;;;;;;;-6.04;69.40;100199.00;4997975;28;20069;-71
2023/12/16 03:23:35;;;;;;;12.60;3.72;;;;;;;-6.10;68.85;100164.00;5014104;28;20054;-70
2023/12/16 03:26:18;;;;;;;11.43;3.97;;;;;;;-6.03;68.07;100200.75;4978105;28;20049;-69
2023/12/16 03:28:47;;;;;;;10.25;3.80;;;;;;;-5.99;68.67;100220.41;5012867;28;20042;-70
2023/12/16 03:31:16;;;;;;;13.73;4.35;;;;;;;-6.34;68.27;100147.22;4996812;28;20140;-70
2023/12/16 03:33:45;;;;;;;10.27;4.07;;;;;;;-6.09;68.59;100172.47;4996770;28;20042;-70
2023/12/16 03:36:11;;;;;;;21.50;6.70;;;;;;;-6.03;68.58;100177.06;4995347;28;20062;-70
2023/12/16 03:38:38;;;;;;;10.60;3.85;;;;;;;-5.97;68.82;100190.97;5015019;28;20041;-70
2023/12/16 03:41:08;;;;;;;12.32;4.35;;;;;;;-5.67;69.00;100236.78;4995430;28;20046;-72
2023/12/16 03:43:37;;;;;;;9.68;2.88;;;;;;;-6.25;68.90;100142.75;4982896;28;20109;-71
2023/12/16 03:46:07;;;;;;;8.80;3.20;;;;;;;-5.70;68.47;100245.88;4989673;28;20045;-71
2023/12/16 03:48:39;;;;;;;13.50;4.37;;;;;;;-6.46;68.25;100097.53;4996423;28;20054;-70
2023/12/16 03:51:10;;;;;;;12.90;3.70;;;;;;;-5.50;68.69;100242.94;5012697;28;20045;-70
2023/12/16 03:53:39;;;;;;;8.15;3.20;;;;;;;-5.45;68.59;100239.03;4971241;28;20129;-72
2023/12/16 03:56:08;;;;;;;9.93;3.58;;;;;;;-5.43;68.51;100230.63;5012902;28;20046;-72
2023/12/16 03:58:42;;;;;;;;;;;;;;;-5.37;68.12;100243.69;5012492;28;20542;-70
2023/12/16 04:01:18;;;;;;;9.67;3.30;;;;;;;-5.50;69.08;100215.03;4996354;28;19922;-71
2023/12/16 04:03:45;;;;;;;10.25;3.65;;;;;;;-5.89;68.09;100145.84;4995797;28;20048;-72
2023/12/16 04:06:12;;;;;;;10.73;3.55;;;;;;;-5.66;67.56;100184.44;4962440;28;20068;-71
2023/12/16 04:08:42;;;;;;;11.18;4.68;;;;;;;-5.52;68.20;100210.66;4996285;28;20046;-71
2023/12/16 04:11:24;;;;;;;8.35;3.20;;;;;;;-5.62;67.58;100199.03;4979463;28;20050;-72
2023/12/16 04:13:53;;;;;;;;;;;;;;;-5.30;68.20;100244.19;4988851;28;20038;-71
2023/12/16 04:16:31;;;;;;;13.68;4.13;;;;;;;-5.90;68.41;100136.47;5012704;28;19917;-71
2023/12/16 04:19:00;;;;;;;14.68;4.70;;;;;;;-5.97;68.32;100089.59;4979580;28;20038;-74
2023/12/16 04:21:29;;;;;;;;;;;;;;;-4.97;68.21;100243.63;4975904;28;20034;-71
2023/12/16 04:23:58;;;;;;;9.27;2.95;;;;;;;-5.07;67.17;100246.38;4960265;28;19917;-72
2023/12/16 04:26:24;;;;;;;11.18;3.85;;;;;;;-6.26;67.04;100067.50;5012233;28;20041;-70
2023/12/16 04:28:50;;;;;;;15.20;5.28;;;;;;;-5.69;67.18;100174.09;4995065;28;20044;-70
2023/12/16 04:31:20;;;;;;;15.90;5.03;;;;;;;-5.77;67.51;100149.13;4978250;28;20100;-70
2023/12/16 04:33:55;;;;;;;12.43;4.75;;;;;;;-5.18;67.67;100240.63;4979335;28;20034;-71
2023/12/16 04:36:26;;;;;;;14.90;6.00;;;;;;;-5.23;67.24;100235.28;4993993;28;20038;-70
2023/12/16 04:38:52;;;;;;;12.93;5.05;;;;;;;-5.22;67.43;100244.66;4977780;28;20376;-70
2023/12/16 04:41:19;;;;;;;11.25;5.13;;;;;;;-5.28;67.27;100241.72;4987559;28;20040;-72
2023/12/16 04:43:57;;;;;;;13.48;4.68;;;;;;;-5.67;67.39;100180.13;4991970;28;20038;-71
2023/12/16 04:46:26;;;;;;;9.65;4.13;;;;;;;-5.81;67.67;100161.53;4990953;28;20037;-70
2023/12/16 04:48:54;;;;;;;13.35;4.97;;;;;;;-5.12;67.50;100268.03;5009746;28;20575;-70
2023/12/16 04:51:22;;;;;;;10.45;4.20;;;;;;;-5.81;67.97;100157.31;4994416;28;20054;-71
2023/12/16 04:53:50;;;;;;;11.15;5.10;;;;;;;-5.15;67.88;100274.69;4980156;28;20038;-70
2023/12/16 04:56:21;;;;;;;17.63;5.45;;;;;;;-5.12;67.69;100273.13;4956044;28;20038;-70
2023/12/16 04:58:50;;;;;;;17.90;5.22;;;;;;;-5.37;67.82;100187.88;4993774;28;20038;-71
2023/12/16 05:01:16;;;;;;;15.88;5.32;;;;;;;-5.73;67.86;100109.59;4993213;28;20053;-69
2023/12/16 05:03:47;;;;;;;12.60;4.90;;;;;;;-4.86;67.34;100265.44;5010423;28;20129;-70
2023/12/16 05:06:13;;;;;;;13.70;5.07;;;;;;;-4.92;67.91;100251.50;4976904;28;20045;-70
2023/12/16 05:08:43;;;;;;;15.00;6.15;;;;;;;-4.89;67.28;100272.00;4990130;28;20129;-70
2023/12/16 05:11:12;;;;;;;17.55;6.32;;;;;;;-5.51;67.42;100161.66;4993519;28;20137;-70
2023/12/16 05:13:42;;;;;;;16.90;6.55;;;;;;;-4.62;67.83;100307.44;4983144;28;20095;-69
2023/12/16 05:16:08;;;;;;;11.10;4.47;;;;;;;-5.32;67.18;100179.78;4993823;28;20038;-71
2023/12/16 05:18:34;;;;;;;20.92;6.82;;;;;;;-4.67;67.65;100297.03;4993337;28;20132;-70
2023/12/16 05:21:00;;;;;;;12.43;5.65;;;;;;;-4.67;67.32;100304.63;4977794;28;20042;-70
2023/12/16 05:23:27;;;;;;;16.90;5.65;;;;;;;-5.25;67.51;100195.34;4989860;28;20056;-71
2023/12/16 05:26:03;;;;;;;20.83;6.95;;;;;;;-5.04;68.21;100211.00;4957819;28;20037;-73
2023/12/16 05:28:34;;;;;;;17.60;5.45;;;;;;;-5.05;68.14;100214.34;5010683;28;20041;-73
2023/12/16 05:31:03;;;;;;;23.33;8.00;;;;;;;-4.60;68.43;100283.03;4978798;28;20034;-74
2023/12/16 05:33:29;;;;;;;18.80;7.03;;;;;;;-5.25;67.66;100167.44;4993201;28;20459;-72
2023/12/16 05:35:57;;;;;;;16.42;5.50;;;;;;;-5.01;67.48;100236.59;4978838;28;20038;-70
2023/12/16 05:38:25;;;;;;;21.80;7.75;;;;;;;-4.76;67.76;100283.78;4952438;28;20147;-74
2023/12/16 05:40:53;;;;;;;20.33;7.82;;;;;;;-5.06;68.16;100235.44;4990838;28;20148;-71
2023/12/16 05:43:22;;;;;;;26.35;7.25;;;;;;;-4.59;68.81;100298.38;4993614;28;20105;-75
2023/12/16 05:45:48;;;;;;;21.77;6.70;;;;;;;-4.81;68.20;100254.69;4990934;28;20041;-74
2023/12/16 05:48:14;;;;;;;17.85;8.07;;;;;;;-4.99;68.79;100225.72;5010015;28;20467;-71
2023/12/16 05:50:41;;;;;;;23.75;7.43;;;;;;;-4.61;68.74;100259.28;5001560;28;20037;-74
2023/12/16 05:53:10;;;;;;;22.80;7.30;;;;;;;-4.99;68.23;100194.41;5000795;28;20072;-73
2023/12/16 05:55:40;;;;;;;27.38;8.02;;;;;;;-4.29;68.39;100334.00;5009692;28;20041;-72
2023/12/16 05:58:08;;;;;;;23.55;7.13;;;;;;;-4.95;68.19;100220.84;4992074;28;20045;-73
2023/12/16 06:00:39;;;;;;;30.95;8.50;;;;;;;-4.72;68.84;100250.13;4973136;28;20041;-72
2023/12/16 06:03:05;;;;;;;21.05;6.28;;;;;;;-4.85;68.39;100238.38;4971608;28;20569;-72
2023/12/16 06:05:31;;;;;;;21.90;7.35;;;;;;;-4.31;68.27;100355.03;4989760;28;20101;-72
2023/12/16 06:07:59;;;;;;;26.00;8.30;;;;;;;-4.51;68.82;100300.47;4992656;28;20184;-72
2023/12/16 06:10:30;;;;;;;23.48;7.43;;;;;;;-4.76;68.39;100243.16;4988320;28;20054;-72
2023/12/16 06:13:13;;;;;;;27.17;8.40;;;;;;;-4.21;68.30;100356.47;4995783;28;20045;-75
2023/12/16 06:15:58;;;;;;;23.70;7.28;;;;;;;-4.78;68.74;100255.75;4977183;28;20667;-75
2023/12/16 06:18:27;;;;;;;28.77;8.93;;;;;;;-4.42;68.58;100311.19;4997039;28;20037;-74
2023/12/16 06:21:11;;;;;;;23.55;6.95;;;;;;;-4.70;68.97;100261.28;4970906;28;20631;-73
2023/12/16 06:23:38;;;;;;;18.30;6.43;;;;;;;-4.25;68.81;100315.59;5014929;28;20107;-74
2023/12/16 06:26:16;;;;;;;25.02;9.27;;;;;;;-4.82;68.48;100242.78;4980571;28;20087;-75
2023/12/16 06:28:45;;;;;;;21.92;7.53;;;;;;;-4.43;68.60;100279.84;5012818;28;20167;-73
2023/12/16 06:31:21;;;;;;;28.25;9.73;;;;;;;-4.22;69.48;100307.31;4998529;28;20144;-74
2023/12/16 06:33:50;;;;;;;27.05;8.07;;;;;;;-4.87;69.10;100179.03;4997371;28;20042;-75
2023/12/16 06:36:19;;;;;;;26.55;9.43;;;;;;;-3.86;69.40;100385.66;4996588;28;20088;-74
2023/12/16 06:38:45;;;;;;;23.05;8.02;;;;;;;-4.40;68.84;100279.13;4981109;28;20045;-73
2023/12/16 06:41:19;;;;;;;21.35;7.90;;;;;;;-4.93;68.93;100198.97;5014084;28;20538;-75
2023/12/16 06:43:54;;;;;;;25.73;8.40;;;;;;;-5.27;69.16;100125.88;4978979;28;20104;-74
2023/12/16 06:46:32;;;;;;;27.40;8.57;;;;;;;-3.81;69.12;100379.13;4979333;28;20512;-73
2023/12/16 06:49:02;;;;;;;22.60;8.57;;;;;;;-4.41;68.98;100239.25;5010335;28;20042;-73
2023/12/16 06:51:31;;;;;;;38.35;10.20;;;;;;;-3.72;69.13;100369.50;4980540;28;20050;-74
2023/12/16 06:54:00;;;;;;;25.20;7.88;;;;;;;-3.73;69.46;100344.88;5001042;28;20049;-74
2023/12/16 06:56:29;;;;;;;12.00;5.20;;;;;;;-4.62;68.02;100185.53;4978328;28;20145;-71
2023/12/16 07:02:14;;;;;;;21.75;7.95;;;;;;;-4.85;68.99;100122.47;5010440;28;20136;-73
2023/12/16 07:04:43;;;;;;;27.25;8.93;;;;;;;-3.66;69.32;100315.56;5009960;28;20042;-74
2023/12/16 07:07:12;;;;;;;23.13;7.47;;;;;;;-3.45;68.97;100336.25;4963753;28;20095;-73
2023/12/16 07:09:41;;;;;;;22.88;7.45;;;;;;;-3.34;68.78;100331.78;4993591;28;20539;-71
2023/12/16 07:12:08;;;;;;;21.73;8.18;;;;;;;-3.19;68.82;100369.91;4998371;28;20046;-72
2023/12/16 07:14:34;;;;;;;23.65;7.70;;;;;;;-3.19;68.57;100364.81;4994243;28;20653;-74
2023/12/16 07:17:11;;;;;;;19.63;7.60;;;;;;;-3.10;69.30;100359.38;5002207;28;20046;-73
2023/12/16 07:19:41;;;;;;;24.35;9.38;;;;;;;-3.06;69.01;100357.06;4960015;28;20911;-74
2023/12/16 07:22:10;;;;;;;22.50;7.22;;;;;;;-3.74;69.34;100226.09;4979065;28;20157;-76
2023/12/16 07:24:37;;;;;;;26.58;9.25;;;;;;;-3.35;68.99;100305.41;4978293;28;20041;-74
2023/12/16 07:27:04;;;;;;;18.60;6.93;;;;;;;-3.29;68.71;100304.88;4992420;28;20045;-74
2023/12/16 07:29:36;;;;;;;21.85;8.30;;;;;;;-3.26;69.57;100288.91;4992136;28;20076;-74
2023/12/16 07:32:05;;;;;;;25.42;9.45;;;;;;;-3.56;69.30;100238.06;5003768;28;20045;-72
2023/12/16 07:34:31;;;;;;;25.85;10.07;;;;;;;-3.13;69.10;100287.91;4988012;28;20599;-73
2023/12/16 07:36:58;;;;;;;26.88;9.43;;;;;;;-3.29;68.81;100266.69;4972100;28;20088;-72
2023/12/16 07:39:25;;;;;;;24.35;9.13;;;;;;;-2.74;69.08;100350.28;4994138;28;20080;-74
2023/12/16 07:41:54;;;;;;;26.05;9.10;;;;;;;-2.70;68.93;100356.44;4970948;28;20161;-74
2023/12/16 07:44:24;;;;;;;21.27;7.82;;;;;;;-2.87;68.98;100317.31;4961181;28;20033;-71
2023/12/16 07:46:50;;;;;;;26.20;9.43;;;;;;;-2.69;69.61;100327.63;4969414;28;20056;-72
2023/12/16 07:49:54;;;;;;;28.75;9.05;;;;;;;-2.93;69.24;100268.59;4969503;28;20073;-75
2023/12/16 07:52:21;;;;;;;21.88;8.77;;;;;;;-3.38;69.76;100175.44;5002225;28;20384;-74
2023/12/16 07:54:51;;;;;;;26.20;8.07;;;;;;;-2.04;69.23;100397.28;5008787;28;20033;-74
2023/12/16 07:57:25;;;;;;;25.30;8.18;;;;;;;-3.19;69.41;100202.75;5002908;28;20041;-75
2023/12/16 07:59:56;;;;;;;30.35;9.13;;;;;;;-3.32;69.37;100180.00;5013676;28;20470;-75
2023/12/16 08:02:35;;;;;;;39.13;10.60;;;;;;;-2.30;69.70;100339.78;4996092;28;20037;-74
2023/12/16 08:05:09;;;;;;;27.20;10.77;;;;;;;-3.08;68.59;100222.81;4986584;28;20044;-72
2023/12/16 08:07:41;;;;;;;24.92;8.88;;;;;;;-3.43;69.45;100155.63;4996418;28;20050;-72
2023/12/16 08:10:15;;;;;;;26.65;9.77;;;;;;;-1.89;69.51;100386.97;4998462;28;20084;-74
2023/12/16 08:12:42;;;;;;;28.73;9.95;;;;;;;-1.79;69.64;100401.06;4998090;28;20133;-74
2023/12/16 08:15:17;;;;;;;27.50;9.80;;;;;;;-2.12;69.50;100325.47;4974262;28;20038;-73
2023/12/16 08:17:45;;;;;;;30.17;9.15;;;;;;;-2.48;69.09;100274.34;4993926;28;20072;-72
2023/12/16 08:20:12;;;;;;;23.17;8.38;;;;;;;-2.40;69.26;100269.63;4976662;28;20038;-72
2023/12/16 08:22:49;;;;;;;25.90;10.68;;;;;;;-2.06;69.63;100306.16;4995537;28;20169;-73
2023/12/16 08:25:30;;;;;;;26.52;7.75;;;;;;;-1.65;69.25;100377.91;4986364;28;20045;-75
2023/12/16 08:27:58;;;;;;;27.65;9.25;;;;;;;-1.74;69.06;100361.34;5021079;28;20049;-75
2023/12/16 08:30:24;;;;;;;29.17;10.27;;;;;;;-1.73;69.42;100349.47;5003842;28;20049;-69
2023/12/16 08:32:52;;;;;;;28.92;9.15;;;;;;;-1.65;69.51;100360.06;4988291;28;20419;-69
2023/12/16 08:35:37;;;;;;;25.85;9.07;;;;;;;-1.47;69.83;100375.41;4990781;28;20052;-68
2023/12/16 08:38:06;;;;;;;21.52;8.55;;;;;;;-1.58;69.50;100349.34;5003238;28;20048;-70
2023/12/16 08:40:35;;;;;;;25.75;7.75;;;;;;;-1.62;69.09;100338.09;5004080;28;20045;-69
2023/12/16 08:43:08;;;;;;;24.35;8.68;;;;;;;-1.36;70.08;100371.69;5009135;28;20044;-68
2023/12/16 08:46:01;;;;;;;21.33;8.15;;;;;;;-1.77;70.04;100293.97;4964891;28;20046;-68
2023/12/16 08:48:28;;;;;;;25.77;9.10;;;;;;;-1.68;70.09;100302.09;4981429;28;20046;-69
2023/12/16 08:51:06;;;;;;;22.45;8.27;;;;;;;-1.32;69.20;100371.03;4981379;28;20042;-68
2023/12/16 08:53:38;;;;;;;18.40;7.88;;;;;;;-1.66;70.13;100308.16;5019792;28;20049;-66
2023/12/16 08:56:04;;;;;;;19.83;7.35;;;;;;;-1.40;70.18;100355.34;5010077;28;20050;-66
2023/12/16 08:58:38;;;;;;;21.80;8.45;;;;;;;-1.27;69.31;100372.13;5001198;28;20042;-65
2023/12/16 09:01:06;;;;;;;25.38;7.97;;;;;;;-1.27;70.05;100377.25;4984292;28;20048;-65
2023/12/16 09:03:36;;;;;;;15.67;6.77;;;;;;;-1.32;69.17;100337.84;4985406;28;20060;-65
2023/12/16 09:06:13;;;;;;;21.23;8.70;;;;;;;-1.03;69.93;100389.44;4997684;28;20038;-66
2023/12/16 09:08:39;;;;;;;19.63;8.00;;;;;;;-0.96;70.02;100378.69;5008897;28;20084;-65
2023/12/16 09:11:25;;;;;;;26.13;8.65;;;;;;;-0.81;70.25;100385.34;5016656;28;20145;-64
2023/12/16 09:13:55;;;;;;;19.92;8.40;;;;;;;-0.87;69.18;100377.38;5005674;28;20037;-64
2023/12/16 09:16:32;;;;;;;17.52;6.20;;;;;;;-0.98;69.53;100349.63;4983238;28;20033;-67
2023/12/16 09:19:03;;;;;;;21.65;8.32;;;;;;;-0.94;69.16;100369.41;5016655;28;20419;-66
2023/12/16 09:21:40;;;;;;;29.30;8.73;;;;;;;-1.41;69.42;100299.06;4995306;28;20041;-66
2023/12/16 09:24:06;;;;;;;20.38;7.03;;;;;;;-0.96;69.81;100363.34;4990269;28;20818;-64
2023/12/16 09:29:55;;;;;;;18.75;7.82;;;;;;;-0.72;69.84;100395.09;5009985;28;20092;-67
2023/12/16 09:32:33;;;;;;;16.58;6.88;;;;;;;-0.75;69.81;100398.38;5018485;28;20052;-62
2023/12/16 09:35:00;;;;;;;19.02;7.43;;;;;;;-0.72;69.97;100392.56;5016846;28;20048;-63
2023/12/16 09:37:26;;;;;;;24.52;10.82;;;;;;;-0.80;70.05;100381.97;4996529;28;20045;-64
2023/12/16 09:40:03;;;;;;;23.25;8.25;;;;;;;-1.14;69.50;100331.84;4984204;28;20052;-64
2023/12/16 09:42:29;;;;;;;25.23;9.60;;;;;;;-1.10;69.46;100323.53;5016653;28;20564;-64
2023/12/16 09:44:59;;;;;;;24.48;10.32;;;;;;;-0.58;69.70;100400.84;5004562;28;20065;-64
2023/12/16 09:47:37;;;;;;;21.23;8.45;;;;;;;-1.01;69.87;100333.28;5000046;28;20049;-65
2023/12/16 09:50:04;;;;;;;17.98;7.80;;;;;;;-0.57;70.40;100393.25;5019764;28;20045;-69
2023/12/16 09:52:33;;;;;;;18.20;8.35;;;;;;;-0.73;69.99;100386.53;4994869;28;20056;-66
2023/12/16 09:55:08;;;;;;;20.13;8.95;;;;;;;-0.75;70.67;100380.47;4997724;28;20045;-66
2023/12/16 09:58:03;;;;;;;23.40;8.02;;;;;;;-0.55;70.53;100408.69;4992767;28;20048;-71
2023/12/16 10:00:30;;;;;;;20.77;6.47;;;;;;;-0.64;70.66;100403.97;4988468;28;20104;-70
2023/12/16 10:02:57;;;;;;;24.85;9.50;;;;;;;-0.92;70.59;100387.38;4987413;28;20076;-70
2023/12/16 10:05:37;;;;;;;18.55;8.40;;;;;;;-1.46;70.60;100298.00;4992647;28;20042;-68
2023/12/16 10:08:05;;;;;;;23.43;10.07;;;;;;;-0.91;70.29;100384.03;4986039;28;20041;-71
2023/12/16 10:10:32;;;;;;;24.08;9.52;;;;;;;-0.85;70.71;100389.41;5002324;28;20285;-69
2023/12/16 10:13:05;;;;;;;23.45;8.68;;;;;;;-1.08;71.01;100358.53;5003016;28;20504;-73
2023/12/16 10:15:36;;;;;;;22.52;9.27;;;;;;;-1.22;70.69;100342.59;5010580;28;20049;-74
2023/12/16 10:18:06;;;;;;;;;;;;;;;-0.74;70.96;100395.03;4993809;28;20018;-72
2023/12/16 10:20:56;;;;;;;20.88;9.43;;;;;;;-1.64;70.41;100235.03;5023984;28;19944;-72
2023/12/16 10:23:36;;;;;;;19.70;8.82;;;;;;;-1.67;70.31;100243.44;4968813;28;20096;-72
2023/12/16 10:26:09;;;;;;;23.25;11.32;;;;;;;-1.43;70.77;100282.81;4994234;28;20069;-77
2023/12/16 10:28:45;;;;;;;23.75;8.48;;;;;;;-1.31;71.22;100291.06;5004786;28;20129;-75
2023/12/16 10:31:11;;;;;;;18.13;8.95;;;;;;;-1.12;70.62;100302.13;5011680;28;20045;-78
2023/12/16 10:33:42;;;;;;;16.27;7.82;;;;;;;-0.81;70.85;100367.44;5005239;28;20050;-81
2023/12/16 10:36:09;;;;;;;20.20;7.72;;;;;;;-0.77;71.33;100374.41;4971446;28;20046;-74
2023/12/16 10:38:35;;;;;;;21.63;8.57;;;;;;;-1.18;71.21;100312.06;4971678;28;20046;-74
2023/12/16 10:41:04;;;;;;;17.92;8.73;;;;;;;-0.83;71.70;100362.25;5001818;28;20558;-76
2023/12/16 10:46:41;;;;;;;19.95;8.00;;;;;;;-1.85;71.17;100207.69;5005404;28;20095;-74
2023/12/16 10:49:25;;;;;;;18.65;7.22;;;;;;;-0.69;71.60;100377.34;5002916;28;20038;-75
2023/12/16 10:51:55;;;;;;;21.35;9.77;;;;;;;-0.73;71.56;100376.31;5008778;28;20084;-74
2023/12/16 10:54:32;;;;;;;21.15;8.60;;;;;;;-1.16;71.51;100284.91;5020605;28;20049;-71
2023/12/16 10:57:21;;;;;;;43.95;18.90;;;;;;;-0.36;71.68;100395.91;5001852;28;20078;-73
2023/12/16 11:00:07;;;;;;;27.40;13.10;;;;;;;-1.08;71.64;100278.50;5004513;28;20042;-72
2023/12/16 11:03:18;;;;;;;22.15;9.93;;;;;;;-0.75;71.68;100321.69;5004249;28;20056;-68
2023/12/16 11:05:53;;;;;;;20.80;7.82;;;;;;;-0.74;71.62;100307.25;4983162;28;20259;-69
2023/12/16 11:08:41;;;;;;;21.67;9.30;;;;;;;-0.48;70.94;100346.75;4995782;28;20041;-67
2023/12/16 11:11:10;;;;;;;27.00;9.77;;;;;;;-0.32;71.14;100374.75;4982784;28;20087;-69
2023/12/16 11:13:55;;;;;;;21.73;7.85;;;;;;;-0.55;71.78;100349.88;4982123;28;20105;-70
2023/12/16 11:16:57;;;;;;;17.42;7.63;;;;;;;-0.35;71.60;100369.53;4986257;28;20042;-70
2023/12/16 11:19:30;;;;;;;18.50;7.80;;;;;;;-0.24;71.71;100370.00;4958683;28;20136;-68
2023/12/16 11:22:21;;;;;;;18.73;7.43;;;;;;;-0.40;71.65;100331.75;5001017;28;20056;-68
2023/12/16 11:24:57;;;;;;;18.35;8.15;;;;;;;-0.27;71.19;100356.19;5008374;28;20972;-67
2023/12/16 11:27:52;;;;;;;17.52;7.57;;;;;;;-0.44;71.89;100330.75;4999466;28;20105;-73
2023/12/16 11:30:21;;;;;;;18.70;6.75;;;;;;;-0.48;71.96;100331.41;5006141;28;20068;-68
2023/12/16 11:32:56;;;;;;;20.90;7.88;;;;;;;-0.17;72.04;100387.34;5002007;28;20041;-69
2023/12/16 11:38:46;;;;;;;17.08;7.28;;;;;;;-1.12;72.10;100228.94;4972839;28;20057;-72
2023/12/16 11:41:36;;;;;;;17.42;7.45;;;;;;;-0.17;71.81;100382.25;5020105;28;20049;-71
2023/12/16 11:44:43;;;;;;;23.92;8.73;;;;;;;-0.23;71.96;100393.88;5002185;28;20080;-74
2023/12/16 11:47:39;;;;;;;16.38;7.22;;;;;;;-0.50;72.25;100371.38;4985611;28;20046;-67
2023/12/16 11:50:06;;;;;;;18.08;8.15;;;;;;;-0.49;72.50;100384.25;4997099;28;20056;-64
2023/12/16 11:52:32;;;;;;;16.20;7.70;;;;;;;-0.72;72.82;100361.88;5016361;28;20110;-64